Terminal Aerodrome Forecast
Issued by NWS

Home | Current Version | Previous Version | Text Only | Print | Product List | Glossary On
Versions: 1 2 3 4 5 6 7 8 9 10 11 12 13 14 15 16
000
FTUS43 KIND 100255 AAA
TAFLAF
TAF AMD
KLAF 100255Z 1003/1024 28006KT P6SM OVC035
     FM101400 25006KT P6SM BKN110
     FM102300 18004KT P6SM OVC070
      AMD LTD TO CLD VIS AND WIND TIL 101400=

USA.gov is the U.S. government's official web portal to all federal, state and local government web resources and services.